createdAt,value
2022-12-17T00:02:10.471Z,30.30
2022-12-17T00:17:34.917Z,31.10
2022-12-17T00:33:00.506Z,23.70
2022-12-17T00:48:24.281Z,22.27
2022-12-17T01:03:48.804Z,22.63
2022-12-17T01:19:13.493Z,22.30
2022-12-17T01:34:37.138Z,20.40
2022-12-17T01:50:01.035Z,17.30
2022-12-17T02:05:25.039Z,16.30
2022-12-17T02:20:55.449Z,18.03
2022-12-17T02:36:27.832Z,15.83
2022-12-17T02:51:53.075Z,16.57
2022-12-17T03:07:17.167Z,16.83
2022-12-17T03:22:41.594Z,15.40
2022-12-17T03:38:05.195Z,14.57
2022-12-17T03:53:28.692Z,14.70
2022-12-17T04:08:54.536Z,12.53
2022-12-17T04:24:18.266Z,11.77
2022-12-17T04:39:44.094Z,10.00
2022-12-17T04:55:07.883Z,10.20
2022-12-17T05:10:31.451Z,7.70
2022-12-17T05:25:54.865Z,9.30
2022-12-17T05:41:20.234Z,8.43
2022-12-17T05:56:43.789Z,9.00
2022-12-17T06:12:07.395Z,11.40
2022-12-17T06:27:30.873Z,14.00
2022-12-17T06:42:56.462Z,13.60
2022-12-17T06:58:20.460Z,14.07
2022-12-17T07:13:44.015Z,20.40
2022-12-17T07:29:09.370Z,14.03
2022-12-17T07:44:34.089Z,4.43
2022-12-17T08:15:34.954Z,2.30
2022-12-17T08:30:58.763Z,2.57
2022-12-17T08:46:22.507Z,2.70
2022-12-17T09:01:46.928Z,7.90
2022-12-17T09:17:11.363Z,12.63
2022-12-17T09:32:35.576Z,7.47
2022-12-17T09:48:08.019Z,4.43
2022-12-17T10:03:37.450Z,2.73
2022-12-17T10:19:23.438Z,2.87
2022-12-17T11:23:21.246Z,1.53
2022-12-17T11:39:02.024Z,1.50
2022-12-17T11:54:36.191Z,1.90
2022-12-17T12:10:39.445Z,4.73
2022-12-17T13:13:54.233Z,11.70
2022-12-17T13:30:42.925Z,8.77
2022-12-17T14:01:39.622Z,8.70
2022-12-17T14:16:51.051Z,8.77
2022-12-17T14:32:03.358Z,12.17
2022-12-17T14:47:17.648Z,9.80
2022-12-17T15:02:41.839Z,9.40
2022-12-17T15:17:49.997Z,12.43
2022-12-17T15:32:58.434Z,8.13
2022-12-17T15:48:04.205Z,10.37
2022-12-17T16:03:15.507Z,19.00
2022-12-17T16:18:20.795Z,20.30
2022-12-17T16:33:27.116Z,23.53
2022-12-17T17:04:03.167Z,28.23
2022-12-17T17:19:21.221Z,17.33
2022-12-17T17:34:28.703Z,21.83
2022-12-17T18:20:31.351Z,53.60
2022-12-17T18:50:58.607Z,45.20
2022-12-17T19:06:09.309Z,35.77
2022-12-17T19:21:20.664Z,20.00
2022-12-17T19:36:28.413Z,19.27
2022-12-17T19:51:37.982Z,22.83
2022-12-17T21:23:35.140Z,14.70
2022-12-17T21:54:11.400Z,13.30
2022-12-17T22:24:36.805Z,11.10
